Time;durP1;ratioP1;P1;durP2;ratioP2;P2;SDS_P1;SDS_P2;PMS_P1;PMS_P2;Temp;Humidity;BMP_temperature;BMP_pressure;BME280_temperature;BME280_humidity;BME280_pressure;Samples;Min_cycle;Max_cycle;Signal;HPM_P1;HPM_P2
2024/01/08 00:01:36;;;;;;;1.70;1.60;;;-0.10;98.20;;;;;;6144519;23;20511;-80
2024/01/08 00:04:03;;;;;;;1.70;1.60;;;-0.10;98.20;;;;;;6159579;23;20512;-79
2024/01/08 00:06:30;;;;;;;1.80;1.70;;;-0.20;98.20;;;;;;6142285;23;20507;-80
2024/01/08 00:08:59;;;;;;;1.80;1.70;;;-0.20;98.20;;;;;;6155192;23;20468;-80
2024/01/08 00:11:26;;;;;;;1.70;1.60;;;-0.20;98.20;;;;;;6143202;23;20459;-80
2024/01/08 00:13:53;;;;;;;1.70;1.60;;;-0.20;98.20;;;;;;6156501;23;20484;-80
2024/01/08 00:16:21;;;;;;;1.80;1.70;;;-0.20;98.20;;;;;;6142419;23;20552;-80
2024/01/08 00:18:48;;;;;;;1.80;1.70;;;-0.10;98.20;;;;;;6155256;23;20613;-80
2024/01/08 00:21:15;;;;;;;1.80;1.70;;;-0.10;98.20;;;;;;6142092;23;20467;-79
2024/01/08 00:23:42;;;;;;;1.70;1.60;;;-0.10;98.20;;;;;;6166811;23;20420;-81
2024/01/08 00:26:10;;;;;;;1.70;1.60;;;-0.10;98.20;;;;;;6141586;23;20522;-79
2024/01/08 00:28:37;;;;;;;1.80;1.70;;;-0.10;98.20;;;;;;6156722;23;20968;-80
2024/01/08 00:31:04;;;;;;;1.90;1.80;;;-0.10;98.20;;;;;;6143838;23;20777;-80
2024/01/08 00:33:31;;;;;;;1.70;1.60;;;-0.10;98.20;;;;;;6155516;23;20449;-80
2024/01/08 00:35:58;;;;;;;1.70;1.60;;;-0.10;98.20;;;;;;6144915;23;20421;-81
2024/01/08 00:38:25;;;;;;;1.70;1.60;;;-0.10;98.20;;;;;;6158321;23;20445;-80
2024/01/08 00:40:51;;;;;;;1.80;1.70;;;-0.10;98.20;;;;;;6141742;23;20503;-80
2024/01/08 00:43:19;;;;;;;1.90;1.80;;;-0.10;98.20;;;;;;6155682;23;21055;-80
2024/01/08 00:45:46;;;;;;;1.80;1.70;;;-0.10;98.20;;;;;;6155534;23;20451;-80
2024/01/08 00:48:13;;;;;;;1.80;1.70;;;-0.10;98.20;;;;;;6157163;23;20519;-81
2024/01/08 00:50:40;;;;;;;1.80;1.70;;;-0.10;98.20;;;;;;6160041;23;20484;-78
2024/01/08 00:53:09;;;;;;;1.73;1.63;;;-0.10;98.20;;;;;;6142809;23;20448;-82
2024/01/08 00:55:35;;;;;;;1.80;1.70;;;-0.10;98.20;;;;;;6159857;23;20425;-78
2024/01/08 00:58:02;;;;;;;1.80;1.70;;;-0.10;98.20;;;;;;6146237;23;20536;-80
2024/01/08 01:00:31;;;;;;;1.70;1.60;;;-0.10;98.20;;;;;;6161509;23;20504;-82
2024/01/08 01:02:58;;;;;;;1.63;1.53;;;-0.10;98.20;;;;;;6140330;23;20445;-80
2024/01/08 01:05:25;;;;;;;1.80;1.70;;;-0.10;98.20;;;;;;6157386;23;20512;-82
2024/01/08 01:07:51;;;;;;;1.90;1.80;;;-0.10;98.20;;;;;;6141316;23;20530;-81
2024/01/08 01:10:19;;;;;;;1.70;1.60;;;-0.10;98.20;;;;;;6160922;23;20424;-79
2024/01/08 01:12:45;;;;;;;1.70;1.60;;;-0.10;98.20;;;;;;6145634;23;20468;-80
2024/01/08 01:15:12;;;;;;;1.80;1.70;;;-0.10;98.20;;;;;;6162138;23;20421;-82
2024/01/08 01:17:41;;;;;;;1.70;1.60;;;-0.10;98.20;;;;;;6147380;23;20460;-80
2024/01/08 01:20:09;;;;;;;1.63;1.50;;;-0.20;98.20;;;;;;6161851;23;20427;-78
2024/01/08 01:22:36;;;;;;;1.73;1.63;;;-0.20;98.20;;;;;;6144696;23;20463;-82
2024/01/08 01:25:02;;;;;;;1.70;1.60;;;-0.20;98.20;;;;;;6158790;23;20499;-80
2024/01/08 01:27:29;;;;;;;1.60;1.50;;;-0.20;98.20;;;;;;6143214;23;20535;-79
2024/01/08 01:29:56;;;;;;;1.70;1.60;;;-0.20;98.20;;;;;;6159910;23;20417;-81
2024/01/08 01:32:23;;;;;;;1.70;1.60;;;-0.20;98.20;;;;;;6145467;23;20858;-79
2024/01/08 01:34:51;;;;;;;1.70;1.60;;;-0.10;98.20;;;;;;6161440;23;20452;-79
2024/01/08 01:37:18;;;;;;;1.70;1.60;;;-0.20;98.20;;;;;;6145300;23;20969;-78
2024/01/08 01:39:45;;;;;;;1.80;1.70;;;-0.20;98.20;;;;;;6161111;23;20440;-78
2024/01/08 01:42:12;;;;;;;1.80;1.70;;;-0.20;98.20;;;;;;6144629;23;20800;-80
2024/01/08 01:44:39;;;;;;;1.70;1.60;;;-0.20;98.20;;;;;;6159883;23;20444;-80
2024/01/08 01:47:06;;;;;;;1.70;1.60;;;-0.30;98.20;;;;;;6151675;23;20519;-80
2024/01/08 01:49:33;;;;;;;1.70;1.60;;;-0.30;98.20;;;;;;6159574;23;20441;-80
2024/01/08 01:52:03;;;;;;;1.70;1.60;;;-0.30;98.20;;;;;;6152503;23;20662;-80
2024/01/08 01:54:30;;;;;;;1.70;1.60;;;-0.30;98.20;;;;;;6162992;23;20417;-79
2024/01/08 01:56:59;;;;;;;1.70;1.60;;;-0.30;98.20;;;;;;6143157;23;20507;-79
2024/01/08 01:59:28;;;;;;;1.80;1.70;;;-0.40;98.20;;;;;;6158358;23;20433;-82
2024/01/08 02:01:55;;;;;;;1.70;1.60;;;-0.40;98.20;;;;;;6147739;23;20547;-81
2024/01/08 02:04:24;;;;;;;1.80;1.70;;;-0.40;98.20;;;;;;6161498;23;20784;-81
2024/01/08 02:06:52;;;;;;;1.67;1.50;;;-0.40;98.20;;;;;;6152291;23;20739;-80
2024/01/08 02:09:20;;;;;;;1.77;1.67;;;-0.40;98.20;;;;;;6165382;23;20504;-79
2024/01/08 02:11:47;;;;;;;1.80;1.70;;;-0.40;98.20;;;;;;6147151;23;20943;-81
2024/01/08 02:14:14;;;;;;;1.80;1.70;;;-0.40;98.20;;;;;;6163235;23;20492;-82
2024/01/08 02:16:41;;;;;;;1.70;1.60;;;-0.40;98.20;;;;;;6147804;23;20996;-81
2024/01/08 02:19:09;;;;;;;1.70;1.60;;;-0.40;98.20;;;;;;6161960;23;20444;-81
2024/01/08 02:21:36;;;;;;;1.80;1.70;;;-0.40;98.20;;;;;;6152545;23;20449;-80
2024/01/08 02:24:06;;;;;;;1.80;1.70;;;-0.40;98.20;;;;;;6159385;23;20444;-80
2024/01/08 02:26:34;;;;;;;1.70;1.60;;;-0.40;98.20;;;;;;6141296;23;21061;-80
2024/01/08 02:29:00;;;;;;;1.80;1.70;;;-0.40;98.20;;;;;;6159662;23;20898;-81
2024/01/08 02:31:27;;;;;;;1.70;1.60;;;-0.40;98.20;;;;;;6149012;23;20540;-80
2024/01/08 02:33:54;;;;;;;1.70;1.60;;;-0.40;98.20;;;;;;6157791;23;20445;-81
2024/01/08 02:36:21;;;;;;;1.80;1.70;;;-0.50;98.20;;;;;;6149671;23;20516;-81
2024/01/08 02:38:59;;;;;;;1.80;1.70;;;-0.50;98.20;;;;;;6159945;23;20795;-80
2024/01/08 02:41:27;;;;;;;1.87;1.77;;;-0.60;98.20;;;;;;6155519;23;20444;-82
2024/01/08 02:43:54;;;;;;;1.70;1.60;;;-0.60;98.20;;;;;;6159037;23;20491;-80
2024/01/08 02:46:21;;;;;;;1.70;1.60;;;-0.70;98.20;;;;;;6147345;23;20480;-80
2024/01/08 02:48:48;;;;;;;1.70;1.60;;;-0.70;98.20;;;;;;6160463;23;20512;-82
2024/01/08 02:51:15;;;;;;;1.80;1.70;;;-0.70;98.20;;;;;;6147102;23;20500;-81
2024/01/08 02:53:42;;;;;;;2.80;2.60;;;-0.70;98.20;;;;;;6162867;23;20519;-81
2024/01/08 02:56:18;;;;;;;1.70;1.60;;;-0.70;98.20;;;;;;6155675;23;20479;-80
2024/01/08 02:58:47;;;;;;;1.80;1.70;;;-0.70;98.20;;;;;;6165399;23;20456;-80
2024/01/08 03:01:14;;;;;;;1.70;1.60;;;-0.70;98.20;;;;;;6148776;23;20452;-80
2024/01/08 03:03:41;;;;;;;2.10;2.00;;;-0.70;98.20;;;;;;6167462;23;20448;-80
2024/01/08 03:06:08;;;;;;;1.90;1.80;;;-0.60;98.20;;;;;;6150441;23;20449;-80
2024/01/08 03:08:35;;;;;;;1.80;1.70;;;-0.60;98.20;;;;;;6158569;23;20937;-80
2024/01/08 03:11:02;;;;;;;1.60;1.50;;;-0.60;98.20;;;;;;6145577;23;20436;-81
2024/01/08 03:13:29;;;;;;;1.80;1.70;;;-0.60;98.20;;;;;;6167969;23;20426;-81
2024/01/08 03:15:57;;;;;;;1.80;1.70;;;-0.60;98.20;;;;;;6158292;23;20413;-81
2024/01/08 03:18:24;;;;;;;1.90;1.80;;;-0.60;98.20;;;;;;6159847;23;20568;-81
2024/01/08 03:20:50;;;;;;;1.80;1.70;;;-0.60;98.20;;;;;;6150197;23;20428;-80
2024/01/08 03:23:17;;;;;;;1.77;1.67;;;-0.60;98.20;;;;;;6162109;23;20453;-80
2024/01/08 03:25:44;;;;;;;1.83;1.73;;;-0.60;98.20;;;;;;6163673;23;20421;-79
2024/01/08 03:28:11;;;;;;;1.80;1.70;;;-0.60;98.20;;;;;;6148744;23;20508;-80
2024/01/08 03:30:38;;;;;;;1.70;1.60;;;-0.60;98.20;;;;;;6160716;23;20417;-80
2024/01/08 03:33:06;;;;;;;1.70;1.60;;;-0.60;98.20;;;;;;6148450;23;20928;-80
2024/01/08 03:35:33;;;;;;;1.70;1.60;;;-0.60;98.20;;;;;;6159457;23;20505;-80
2024/01/08 03:37:59;;;;;;;1.90;1.80;;;-0.60;98.20;;;;;;6141894;23;20465;-81
2024/01/08 03:40:26;;;;;;;1.80;1.70;;;-0.50;98.20;;;;;;6154263;23;20709;-81
2024/01/08 03:42:53;;;;;;;1.80;1.70;;;-0.50;98.20;;;;;;6148166;23;20454;-80
2024/01/08 03:45:20;;;;;;;1.93;1.83;;;-0.60;98.20;;;;;;6164598;23;20452;-81
2024/01/08 03:47:46;;;;;;;1.83;1.73;;;-0.60;98.20;;;;;;6150074;23;20524;-81
2024/01/08 03:50:15;;;;;;;1.90;1.80;;;-0.60;98.20;;;;;;6163680;23;20447;-82
2024/01/08 03:52:42;;;;;;;1.80;1.70;;;-0.60;98.20;;;;;;6144590;23;21041;-82
2024/01/08 03:55:09;;;;;;;1.83;1.73;;;-0.70;98.20;;;;;;6162820;23;20741;-79
2024/01/08 03:57:41;;;;;;;1.90;1.80;;;-0.70;98.20;;;;;;6146680;23;20488;-81
2024/01/08 04:00:09;;;;;;;1.80;1.70;;;-0.70;98.20;;;;;;6159488;23;20452;-82
2024/01/08 04:02:36;;;;;;;1.80;1.70;;;-0.80;98.20;;;;;;6138616;23;21047;-82
2024/01/08 04:05:06;;;;;;;1.80;1.70;;;-0.80;98.20;;;;;;6157391;23;20448;-80
2024/01/08 04:11:29;;;;;;;1.90;1.80;;;-0.70;98.20;;;;;;5971388;23;21050;-79
2024/01/08 04:14:02;;;;;;;1.90;1.80;;;-0.70;98.20;;;;;;6019583;23;20445;-81
2024/01/08 04:16:38;;;;;;;1.80;1.70;;;-0.70;98.20;;;;;;6091922;23;20445;-81
2024/01/08 04:19:04;;;;;;;1.70;1.60;;;-0.70;98.20;;;;;;6157298;23;20469;-83
2024/01/08 04:21:31;;;;;;;1.90;1.80;;;-0.70;98.20;;;;;;6145123;23;20451;-79
2024/01/08 04:24:16;;;;;;;1.80;1.70;;;-0.70;98.20;;;;;;6161906;23;20459;-81
2024/01/08 04:26:44;;;;;;;1.90;1.80;;;-0.70;98.20;;;;;;6145147;23;20456;-81
2024/01/08 04:29:11;;;;;;;1.80;1.70;;;-0.70;98.20;;;;;;6161560;23;20697;-81
2024/01/08 04:31:38;;;;;;;1.80;1.70;;;-0.70;98.20;;;;;;6148752;23;20475;-81
2024/01/08 04:34:05;;;;;;;1.90;1.80;;;-0.70;98.20;;;;;;6171613;23;20487;-81
2024/01/08 04:36:32;;;;;;;1.80;1.70;;;-0.70;98.20;;;;;;6147135;23;20445;-79
2024/01/08 04:38:58;;;;;;;1.80;1.70;;;-0.80;98.20;;;;;;6157453;23;20468;-81
2024/01/08 04:41:25;;;;;;;1.80;1.70;;;-0.70;98.20;;;;;;6142206;23;20520;-80
2024/01/08 04:43:53;;;;;;;1.80;1.70;;;-0.70;98.20;;;;;;6160775;23;20531;-80
2024/01/08 04:46:20;;;;;;;1.80;1.70;;;-0.70;98.20;;;;;;6150943;23;20455;-79
2024/01/08 04:48:52;;;;;;;1.70;1.60;;;-0.70;98.20;;;;;;6163989;23;20441;-81
2024/01/08 04:51:22;;;;;;;1.80;1.70;;;-0.70;98.20;;;;;;6154183;23;20472;-81
2024/01/08 04:53:49;;;;;;;1.80;1.70;;;-0.70;98.20;;;;;;6166216;23;20413;-80
2024/01/08 04:56:23;;;;;;;1.80;1.70;;;-0.70;98.20;;;;;;6146732;23;20500;-80
2024/01/08 04:58:49;;;;;;;2.03;1.93;;;-0.70;98.20;;;;;;6159729;23;20979;-81
2024/01/08 05:01:18;;;;;;;1.90;1.80;;;-0.70;98.20;;;;;;6146601;23;20799;-81
2024/01/08 05:03:45;;;;;;;1.80;1.70;;;-0.70;98.20;;;;;;6160082;23;20504;-80
2024/01/08 05:06:14;;;;;;;2.20;2.00;;;-0.80;98.20;;;;;;6154410;23;20452;-81
2024/01/08 05:08:41;;;;;;;2.00;1.90;;;-0.80;98.20;;;;;;6169750;23;20483;-82
2024/01/08 05:11:08;;;;;;;1.80;1.70;;;-0.80;98.20;;;;;;6150842;23;20629;-80
2024/01/08 05:13:43;;;;;;;3.60;2.90;;;-0.80;98.20;;;;;;6167157;23;20417;-80
2024/01/08 05:16:12;;;;;;;1.80;1.70;;;-0.70;98.20;;;;;;6153962;23;20486;-81
2024/01/08 05:18:41;;;;;;;1.77;1.67;;;-0.70;98.20;;;;;;6163556;23;20471;-80
2024/01/08 05:31:52;;;;;;;;;;;;;;;;;;;;;
2024/01/08 05:56:00;;;;;;;1.90;1.80;;;-0.70;98.20;;;;;;6170044;23;20552;-79
2024/01/08 06:02:51;;;;;;;1.80;1.70;;;-0.70;98.20;;;;;;5958291;24;20466;-82
2024/01/08 06:16:08;;;;;;;1.90;1.80;;;-0.70;98.20;;;;;;5985186;23;20433;-79
2024/01/08 06:22:25;;;;;;;1.90;1.80;;;-0.70;98.20;;;;;;5957350;24;20430;-80
2024/01/08 06:24:53;;;;;;;1.90;1.80;;;-0.70;98.20;;;;;;5985146;23;20701;-82
2024/01/08 06:39:47;;;;;;;1.90;1.80;;;-0.60;98.20;;;;;;5954460;24;20427;-80
2024/01/08 06:52:10;;;;;;;1.80;1.70;;;-0.70;98.20;;;;;;6069406;23;20709;-80
2024/01/08 07:02:23;;;;;;;;;;;;;;;;;;;;;
2024/01/08 07:13:27;;;;;;;1.80;1.70;;;-0.50;98.20;;;;;;6198263;22;20451;-78
2024/01/08 07:16:40;;;;;;;1.70;1.60;;;-0.50;98.20;;;;;;6177588;23;20419;-79
2024/01/08 07:22:19;;;;;;;1.70;1.60;;;-0.50;98.20;;;;;;6032024;23;20485;-78
2024/01/08 07:24:46;;;;;;;1.90;1.80;;;-0.50;98.20;;;;;;6141373;23;20449;-79
2024/01/08 07:27:13;;;;;;;1.80;1.70;;;-0.50;98.20;;;;;;6125900;23;20461;-78
2024/01/08 07:29:41;;;;;;;1.70;1.60;;;-0.40;98.20;;;;;;6147914;23;20493;-77
2024/01/08 07:32:10;;;;;;;1.97;1.87;;;-0.40;98.20;;;;;;6121176;23;20495;-79
2024/01/08 07:34:40;;;;;;;1.90;1.80;;;-0.40;98.20;;;;;;6148546;23;20421;-78
2024/01/08 07:37:10;;;;;;;1.83;1.73;;;-0.50;98.20;;;;;;6121697;23;20461;-78
2024/01/08 07:39:37;;;;;;;1.70;1.60;;;-0.50;98.20;;;;;;6156496;23;20425;-78
2024/01/08 07:42:10;;;;;;;1.90;1.80;;;-0.40;98.20;;;;;;6119723;23;20454;-79
2024/01/08 07:44:37;;;;;;;1.60;1.47;;;-0.50;98.20;;;;;;6143927;23;20509;-78
2024/01/08 07:47:08;;;;;;;1.80;1.70;;;-0.50;98.20;;;;;;6125774;23;20454;-78
2024/01/08 07:49:39;;;;;;;1.73;1.63;;;-0.50;98.20;;;;;;6146090;23;20440;-79
2024/01/08 07:52:10;;;;;;;1.80;1.70;;;-0.50;98.20;;;;;;6121216;23;20531;-78
2024/01/08 07:54:54;;;;;;;1.70;1.60;;;-0.50;98.20;;;;;;6155944;23;20408;-77
2024/01/08 07:57:21;;;;;;;1.70;1.60;;;-0.40;98.20;;;;;;6118850;23;20566;-78
2024/01/08 07:59:57;;;;;;;1.80;1.70;;;-0.40;98.20;;;;;;6157472;23;20425;-78
2024/01/08 08:09:12;;;;;;;1.70;1.60;;;-0.40;98.20;;;;;;5956164;23;20514;-77
2024/01/08 08:11:40;;;;;;;1.70;1.60;;;-0.40;98.20;;;;;;6110191;23;20479;-78
2024/01/08 08:14:07;;;;;;;1.70;1.60;;;-0.40;98.20;;;;;;6131099;23;20913;-78
2024/01/08 08:17:27;;;;;;;1.80;1.70;;;-0.40;98.20;;;;;;6113048;23;20529;-78
2024/01/08 08:20:15;;;;;;;1.90;1.80;;;-0.40;98.20;;;;;;6024838;23;20493;-77
2024/01/08 08:23:26;;;;;;;1.80;1.70;;;-0.30;98.20;;;;;;6105932;23;20473;-79
2024/01/08 08:26:32;;;;;;;1.80;1.70;;;-0.30;98.20;;;;;;5997773;23;20524;-78
2024/01/08 08:32:39;;;;;;;1.80;1.70;;;-0.30;98.20;;;;;;6123218;23;20477;-79
2024/01/08 08:38:50;;;;;;;1.70;1.60;;;-0.20;98.20;;;;;;5957037;23;20442;-78
2024/01/08 08:41:17;;;;;;;1.70;1.60;;;-0.20;98.20;;;;;;5980633;23;20450;-79
2024/01/08 08:43:45;;;;;;;1.70;1.60;;;-0.20;98.20;;;;;;6126532;23;20436;-78
2024/01/08 08:46:20;;;;;;;1.80;1.70;;;-0.20;98.20;;;;;;6134616;23;20445;-78
2024/01/08 08:48:56;;;;;;;1.70;1.60;;;-0.20;98.20;;;;;;6145088;23;20474;-78
2024/01/08 08:51:28;;;;;;;1.80;1.70;;;-0.20;98.20;;;;;;6131397;23;20480;-78
2024/01/08 08:53:59;;;;;;;1.70;1.60;;;-0.20;98.20;;;;;;6145138;23;20795;-79
2024/01/08 08:57:22;;;;;;;1.73;1.63;;;-0.30;98.20;;;;;;6132855;23;20449;-79
2024/01/08 08:59:54;;;;;;;2.73;2.53;;;-0.30;98.20;;;;;;6122095;23;20459;-78
2024/01/08 09:02:23;;;;;;;1.90;1.80;;;-0.20;98.20;;;;;;6123879;23;20560;-79
2024/01/08 09:04:50;;;;;;;1.80;1.70;;;-0.30;98.20;;;;;;6147041;23;20448;-78
2024/01/08 09:07:22;;;;;;;1.80;1.70;;;-0.20;98.20;;;;;;6116419;23;20454;-79
2024/01/08 09:10:06;;;;;;;1.90;1.80;;;-0.30;98.20;;;;;;6146491;23;20416;-80
2024/01/08 09:12:50;;;;;;;1.70;1.60;;;-0.30;98.20;;;;;;6118702;23;20767;-80
2024/01/08 09:15:37;;;;;;;1.70;1.60;;;-0.40;98.20;;;;;;6154203;23;20417;-80
2024/01/08 09:18:45;;;;;;;;;;;;;;;;;;;;;
2024/01/08 09:21:20;;;;;;;1.90;1.80;;;-0.30;98.20;;;;;;6137540;23;20465;-80
2024/01/08 09:37:35;;;;;;;1.73;1.63;;;-0.20;98.20;;;;;;5960734;24;20442;-78
2024/01/08 09:40:15;;;;;;;1.60;1.50;;;-0.20;98.20;;;;;;5981520;23;20936;-80
2024/01/08 09:46:05;;;;;;;1.60;1.50;;;-0.10;98.20;;;;;;6146608;23;20516;-80
2024/01/08 09:48:43;;;;;;;1.87;1.77;;;-0.10;98.20;;;;;;6112666;23;20441;-79
2024/01/08 09:51:10;;;;;;;1.80;1.70;;;0.00;98.20;;;;;;6141211;23;20424;-80
2024/01/08 09:53:39;;;;;;;1.80;1.70;;;0.00;98.20;;;;;;6130469;23;20493;-79
2024/01/08 09:56:50;;;;;;;1.73;1.63;;;0.00;98.20;;;;;;6140279;23;20504;-80
2024/01/08 09:59:22;;;;;;;1.70;1.60;;;0.10;98.20;;;;;;6153939;22;20864;-81
2024/01/08 10:02:13;;;;;;;;;;;;;;;;;;;;;
2024/01/08 10:04:40;;;;;;;1.60;1.50;;;0.10;98.20;;;;;;6157053;23;20507;-80
2024/01/08 10:11:03;;;;;;;1.73;1.63;;;0.10;98.20;;;;;;6010171;23;20676;-79
2024/01/08 10:13:42;;;;;;;1.70;1.60;;;0.10;98.20;;;;;;6055690;23;20516;-79
2024/01/08 10:16:09;;;;;;;1.60;1.50;;;0.10;98.20;;;;;;6138605;23;20437;-79
2024/01/08 10:19:43;;;;;;;1.77;1.67;;;0.20;98.20;;;;;;6138879;23;20520;-79
2024/01/08 10:22:25;;;;;;;1.70;1.60;;;0.20;98.20;;;;;;6049931;23;20929;-78
2024/01/08 10:24:52;;;;;;;1.70;1.60;;;0.30;98.20;;;;;;6067843;23;20454;-79
2024/01/08 10:27:19;;;;;;;1.67;1.57;;;0.40;98.20;;;;;;6044352;23;20494;-79
2024/01/08 10:29:46;;;;;;;1.63;1.50;;;0.40;98.20;;;;;;6092136;23;20425;-79
2024/01/08 10:32:13;;;;;;;1.70;1.53;;;0.40;98.20;;;;;;6114661;23;20464;-79
2024/01/08 10:34:41;;;;;;;1.63;1.50;;;0.40;98.20;;;;;;6140722;23;20424;-79
2024/01/08 10:37:09;;;;;;;1.70;1.60;;;0.30;98.20;;;;;;6116805;23;20485;-79
2024/01/08 10:39:39;;;;;;;1.70;1.60;;;0.30;98.20;;;;;;6141918;23;20441;-78
2024/01/08 10:42:06;;;;;;;1.70;1.50;;;0.30;98.20;;;;;;6119661;23;20548;-78
2024/01/08 10:44:33;;;;;;;1.70;1.60;;;0.40;98.20;;;;;;6152480;23;20452;-80
2024/01/08 10:47:07;;;;;;;1.83;1.73;;;0.40;98.20;;;;;;6125830;23;21085;-78
2024/01/08 10:49:36;;;;;;;1.63;1.50;;;0.40;98.20;;;;;;6141144;23;20441;-79
2024/01/08 10:52:11;;;;;;;1.63;1.50;;;0.40;98.00;;;;;;6117172;23;20521;-79
2024/01/08 10:54:43;;;;;;;1.63;1.50;;;0.30;97.30;;;;;;6141169;23;20880;-80
2024/01/08 10:57:14;;;;;;;1.73;1.63;;;0.30;97.10;;;;;;6115758;23;20453;-79
2024/01/08 10:59:42;;;;;;;1.70;1.60;;;0.30;96.50;;;;;;6142266;23;20540;-80
2024/01/08 11:02:13;;;;;;;1.70;1.60;;;0.20;96.80;;;;;;6113441;23;20482;-79
2024/01/08 11:04:42;;;;;;;1.60;1.50;;;0.20;98.20;;;;;;6140783;23;20447;-79
2024/01/08 11:07:11;;;;;;;1.60;1.50;;;0.20;98.20;;;;;;6114492;23;21041;-79
2024/01/08 11:09:40;;;;;;;1.60;1.50;;;0.20;98.20;;;;;;6141318;23;20445;-78
2024/01/08 11:12:10;;;;;;;1.90;1.80;;;0.20;98.20;;;;;;6115399;23;20700;-79
2024/01/08 11:14:39;;;;;;;1.63;1.50;;;0.20;98.20;;;;;;6142018;23;20444;-80
2024/01/08 11:17:09;;;;;;;1.80;1.70;;;0.10;98.20;;;;;;6114317;23;20461;-78
2024/01/08 11:19:41;;;;;;;1.80;1.70;;;0.10;98.20;;;;;;6140811;23;20775;-79
2024/01/08 11:22:11;;;;;;;1.67;1.50;;;0.10;97.30;;;;;;6124146;23;20840;-78
2024/01/08 11:24:41;;;;;;;1.60;1.50;;;0.00;97.50;;;;;;6142764;23;20457;-78
2024/01/08 11:27:08;;;;;;;1.70;1.60;;;0.00;97.60;;;;;;6118561;23;20452;-78
2024/01/08 11:29:35;;;;;;;1.70;1.60;;;0.00;97.10;;;;;;6146595;23;20742;-79
2024/01/08 11:32:39;;;;;;;1.70;1.60;;;0.00;96.60;;;;;;6116599;23;20450;-78
2024/01/08 11:35:10;;;;;;;1.67;1.50;;;0.00;94.80;;;;;;6147876;23;20416;-79
2024/01/08 11:37:38;;;;;;;1.63;1.50;;;0.00;94.60;;;;;;6111372;23;20512;-80
2024/01/08 11:40:16;;;;;;;1.60;1.50;;;-0.10;94.10;;;;;;6146637;23;20424;-77
2024/01/08 11:42:43;;;;;;;4.47;4.27;;;-0.10;91.90;;;;;;6109641;23;20449;-78
2024/01/08 11:45:10;;;;;;;1.70;1.60;;;-0.20;91.40;;;;;;6145639;23;20543;-78
2024/01/08 11:47:41;;;;;;;1.70;1.60;;;-0.20;90.20;;;;;;6111628;23;20457;-79
2024/01/08 11:50:09;;;;;;;1.70;1.60;;;-0.20;91.10;;;;;;6150132;23;20405;-79
2024/01/08 11:52:38;;;;;;;1.70;1.60;;;-0.20;89.70;;;;;;6116472;23;21038;-79
2024/01/08 11:55:07;;;;;;;1.77;1.67;;;-0.30;88.80;;;;;;6153894;23;20515;-79
2024/01/08 11:57:36;;;;;;;1.70;1.60;;;-0.30;88.70;;;;;;6115413;23;20866;-79
2024/01/08 12:00:14;;;;;;;1.80;1.70;;;-0.30;89.60;;;;;;6148576;23;20728;-79
2024/01/08 12:02:40;;;;;;;1.60;1.50;;;-0.20;89.70;;;;;;6114659;23;20532;-79
2024/01/08 12:05:08;;;;;;;1.70;1.60;;;-0.20;89.40;;;;;;6150554;23;20651;-79
2024/01/08 12:07:38;;;;;;;1.80;1.70;;;-0.20;87.70;;;;;;6114499;23;20587;-80
2024/01/08 12:10:06;;;;;;;1.70;1.60;;;-0.20;89.10;;;;;;6149985;23;20434;-77
2024/01/08 12:12:33;;;;;;;1.63;1.50;;;-0.20;87.60;;;;;;6115217;23;20580;-80
2024/01/08 12:15:02;;;;;;;1.73;1.63;;;-0.30;86.50;;;;;;6146662;23;20946;-78
2024/01/08 12:17:29;;;;;;;1.70;1.60;;;-0.20;86.30;;;;;;6110938;23;20692;-79
2024/01/08 12:19:58;;;;;;;1.70;1.60;;;-0.20;86.30;;;;;;6145890;23;20546;-78
2024/01/08 12:22:26;;;;;;;1.70;1.60;;;-0.30;86.50;;;;;;6113109;23;20536;-78
2024/01/08 12:24:55;;;;;;;1.73;1.63;;;-0.30;86.30;;;;;;6142322;23;20842;-79
2024/01/08 12:27:22;;;;;;;1.70;1.60;;;-0.30;85.30;;;;;;6111514;23;20483;-77
2024/01/08 12:29:51;;;;;;;1.70;1.60;;;-0.20;85.90;;;;;;6142256;23;20500;-77
2024/01/08 12:32:20;;;;;;;1.70;1.60;;;-0.20;85.60;;;;;;6111841;23;21061;-78
2024/01/08 12:34:47;;;;;;;1.70;1.60;;;-0.30;85.40;;;;;;6141235;23;20480;-78
2024/01/08 12:37:18;;;;;;;1.60;1.50;;;-0.30;86.20;;;;;;6111782;23;20464;-77
2024/01/08 12:39:45;;;;;;;1.70;1.60;;;-0.30;84.70;;;;;;6140847;23;20455;-77
2024/01/08 12:42:15;;;;;;;1.70;1.60;;;-0.30;86.10;;;;;;6112675;23;20484;-78
2024/01/08 12:44:43;;;;;;;1.80;1.70;;;-0.20;86.60;;;;;;6139636;23;21021;-78
2024/01/08 12:47:13;;;;;;;1.77;1.67;;;-0.20;86.80;;;;;;6112624;23;20517;-77
2024/01/08 12:49:41;;;;;;;2.43;2.23;;;-0.20;87.30;;;;;;6140669;23;20436;-79
2024/01/08 12:52:08;;;;;;;1.77;1.67;;;-0.10;87.70;;;;;;6116493;23;20454;-79
2024/01/08 12:54:37;;;;;;;1.63;1.50;;;0.00;87.20;;;;;;6140932;23;20499;-80
2024/01/08 12:57:04;;;;;;;1.60;1.50;;;0.10;87.60;;;;;;6114926;23;20549;-79
2024/01/08 12:59:33;;;;;;;1.60;1.50;;;0.10;86.70;;;;;;6140075;23;20463;-78
2024/01/08 13:02:00;;;;;;;1.70;1.60;;;0.20;86.30;;;;;;6117226;23;20477;-79
2024/01/08 13:04:27;;;;;;;1.60;1.50;;;0.20;85.60;;;;;;6141723;23;20443;-79
2024/01/08 13:06:55;;;;;;;1.60;1.50;;;0.20;84.50;;;;;;6121204;23;20476;-78
2024/01/08 13:09:22;;;;;;;2.37;2.17;;;0.30;85.00;;;;;;6140891;23;20519;-78
2024/01/08 13:11:49;;;;;;;1.63;1.50;;;0.30;84.50;;;;;;6125153;23;20504;-78
2024/01/08 13:14:17;;;;;;;1.70;1.60;;;0.40;85.70;;;;;;6139015;23;20421;-77
2024/01/08 13:16:47;;;;;;;1.70;1.60;;;0.30;84.30;;;;;;6140997;23;20440;-79
2024/01/08 13:19:14;;;;;;;1.70;1.60;;;0.30;85.00;;;;;;6149329;23;20464;-79
2024/01/08 13:21:43;;;;;;;1.70;1.60;;;0.20;85.20;;;;;;6140482;23;20536;-79
2024/01/08 13:24:14;;;;;;;1.70;1.60;;;0.20;84.30;;;;;;6149999;23;20503;-78
2024/01/08 13:26:41;;;;;;;1.80;1.70;;;0.20;84.60;;;;;;6128530;23;20449;-78
2024/01/08 13:29:09;;;;;;;1.60;1.50;;;0.10;84.50;;;;;;6142451;23;20448;-79
2024/01/08 13:31:38;;;;;;;1.70;1.60;;;0.10;84.80;;;;;;6131071;23;20677;-79
2024/01/08 13:34:06;;;;;;;1.70;1.60;;;0.10;85.70;;;;;;6141698;23;20436;-78
2024/01/08 13:36:33;;;;;;;1.80;1.70;;;0.10;86.10;;;;;;6131854;23;20449;-79
2024/01/08 13:39:00;;;;;;;2.10;1.90;;;0.10;86.20;;;;;;6138074;23;20961;-78
2024/01/08 13:41:28;;;;;;;1.67;1.50;;;0.00;86.10;;;;;;6133371;23;21176;-78
2024/01/08 13:43:55;;;;;;;1.70;1.60;;;0.00;86.60;;;;;;6138805;23;20492;-77
2024/01/08 13:47:19;;;;;;;;;;;;;;;;;;;;;
2024/01/08 13:53:21;;;;;;;1.70;1.60;;;-0.20;87.00;;;;;;5995609;23;20605;-78
2024/01/08 13:59:23;;;;;;;1.70;1.60;;;-0.30;87.80;;;;;;6105382;23;20994;-78
2024/01/08 14:02:31;;;;;;;;;;;;;;;;;;;;;
2024/01/08 14:05:02;;;;;;;1.70;1.60;;;-0.50;88.30;;;;;;6163880;23;20409;-77
2024/01/08 14:07:42;;;;;;;1.70;1.60;;;-0.60;87.70;;;;;;6121648;23;20453;-78
2024/01/08 14:10:13;;;;;;;1.70;1.60;;;-0.60;88.00;;;;;;6165506;23;20444;-78
2024/01/08 14:12:39;;;;;;;1.70;1.60;;;-0.60;88.60;;;;;;6120696;23;20477;-78
2024/01/08 14:15:07;;;;;;;1.80;1.70;;;-0.70;88.70;;;;;;6163894;23;20440;-78
2024/01/08 14:17:38;;;;;;;1.70;1.60;;;-0.70;88.00;;;;;;6120624;23;20453;-79
2024/01/08 14:20:07;;;;;;;1.70;1.60;;;-0.70;88.80;;;;;;6154261;23;20413;-78
2024/01/08 14:22:33;;;;;;;1.73;1.63;;;-0.80;89.00;;;;;;6120707;23;20500;-77
2024/01/08 14:25:00;;;;;;;1.70;1.60;;;-0.80;88.90;;;;;;6164487;23;21330;-79
2024/01/08 14:27:38;;;;;;;1.80;1.70;;;-0.80;88.20;;;;;;6132457;23;20489;-80
2024/01/08 14:30:06;;;;;;;1.70;1.60;;;-0.80;88.60;;;;;;6163832;23;20428;-77
2024/01/08 14:32:33;;;;;;;1.70;1.60;;;-0.90;88.90;;;;;;6127686;23;20517;-78
2024/01/08 14:35:03;;;;;;;4.23;4.03;;;-0.90;89.20;;;;;;6152090;23;20460;-78
2024/01/08 14:37:30;;;;;;;1.80;1.70;;;-0.90;89.70;;;;;;6135064;23;20454;-80
2024/01/08 14:39:57;;;;;;;1.90;1.80;;;-0.90;89.40;;;;;;6152982;23;20452;-78
2024/01/08 14:42:26;;;;;;;1.80;1.70;;;-0.90;90.00;;;;;;6121866;23;20474;-79
2024/01/08 14:44:53;;;;;;;1.80;1.70;;;-0.90;90.70;;;;;;6161760;23;20416;-78
2024/01/08 14:47:21;;;;;;;1.80;1.70;;;-0.90;90.60;;;;;;6120674;23;20460;-79
2024/01/08 14:49:47;;;;;;;1.80;1.70;;;-0.90;89.60;;;;;;6160335;23;20438;-78
2024/01/08 14:52:36;;;;;;;1.80;1.70;;;-1.00;88.90;;;;;;6125869;23;20804;-81
2024/01/08 14:55:03;;;;;;;2.00;1.90;;;-1.00;89.60;;;;;;6184348;23;20421;-79
2024/01/08 14:57:32;;;;;;;1.80;1.70;;;-1.00;90.00;;;;;;6122493;23;20529;-79
2024/01/08 15:00:00;;;;;;;1.73;1.63;;;-1.00;89.60;;;;;;6154098;23;20439;-79
2024/01/08 15:02:26;;;;;;;1.87;1.77;;;-1.00;90.60;;;;;;6120596;23;20509;-79
2024/01/08 15:04:53;;;;;;;1.90;1.80;;;-1.00;89.90;;;;;;6160405;23;20488;-79
2024/01/08 15:07:21;;;;;;;2.00;1.90;;;-1.00;90.00;;;;;;6120529;23;21000;-78
2024/01/08 15:09:49;;;;;;;1.90;1.80;;;-1.10;90.20;;;;;;6152227;23;20436;-78
2024/01/08 15:12:16;;;;;;;1.90;1.80;;;-1.10;90.60;;;;;;6123339;23;20457;-79
2024/01/08 15:14:42;;;;;;;1.90;1.80;;;-1.10;90.70;;;;;;6151670;23;20425;-79
2024/01/08 15:17:09;;;;;;;1.80;1.70;;;-1.10;91.30;;;;;;6122220;23;20517;-78
2024/01/08 15:19:38;;;;;;;1.93;1.83;;;-1.10;90.70;;;;;;6158821;23;20468;-78
2024/01/08 15:22:05;;;;;;;1.70;1.60;;;-1.20;90.10;;;;;;6124364;23;20889;-79
2024/01/08 15:24:36;;;;;;;1.90;1.80;;;-1.20;90.50;;;;;;6146822;23;20459;-78
2024/01/08 15:27:03;;;;;;;1.90;1.80;;;-1.20;90.40;;;;;;6124395;23;20453;-80
2024/01/08 15:29:31;;;;;;;1.90;1.80;;;-1.20;90.50;;;;;;6146641;23;20920;-78
2024/01/08 15:31:58;;;;;;;1.90;1.80;;;-1.20;90.60;;;;;;6132931;23;20453;-82